createdAt,value
2016-08-16T00:01:22.570Z,13.29
2016-08-16T00:02:22.541Z,13.3
2016-08-16T00:03:22.570Z,13.33
2016-08-16T00:04:22.596Z,13.19
2016-08-16T00:05:22.624Z,13.23
2016-08-16T00:06:22.642Z,13.38
2016-08-16T00:07:22.672Z,13.3
2016-08-16T00:08:22.701Z,13.32
2016-08-16T00:09:22.712Z,13.38
2016-08-16T00:10:22.738Z,13.46
2016-08-16T00:11:22.775Z,13.39
2016-08-16T00:12:22.791Z,13.33
2016-08-16T00:13:22.817Z,13.36
2016-08-16T00:14:37.764Z,13.29
2016-08-16T00:15:22.921Z,13.22
2016-08-16T00:16:22.892Z,13.29
2016-08-16T00:17:22.919Z,13.22
2016-08-16T00:18:22.944Z,13.22
2016-08-16T00:19:22.962Z,13.33
2016-08-16T00:20:22.999Z,13.36
2016-08-16T00:22:23.053Z,13.32
2016-08-16T00:23:23.069Z,13.39
2016-08-16T00:25:23.115Z,13.39
2016-08-16T00:26:23.139Z,13.3
2016-08-16T00:27:23.166Z,13.3
2016-08-16T00:28:23.189Z,13.32
2016-08-16T00:29:23.213Z,13.33
2016-08-16T00:30:38.163Z,13.29
2016-08-16T00:31:23.262Z,13.32
2016-08-16T00:32:23.290Z,13.36
2016-08-16T00:33:23.315Z,13.29
2016-08-16T00:34:23.339Z,13.36
2016-08-16T00:35:23.361Z,13.22
2016-08-16T00:36:24.085Z,13.22
2016-08-16T00:37:23.411Z,13.3
2016-08-16T00:38:23.435Z,13.32
2016-08-16T00:39:23.461Z,13.26
2016-08-16T00:40:23.483Z,13.36
2016-08-16T00:41:23.515Z,13.23
2016-08-16T00:42:23.532Z,13.14
2016-08-16T00:44:23.586Z,13.11
2016-08-16T00:46:38.553Z,13.15
2016-08-16T00:47:23.663Z,13.19
2016-08-16T00:48:23.683Z,13.14
2016-08-16T00:49:23.708Z,13.11
2016-08-16T00:50:24.430Z,13.2
2016-08-16T00:51:23.763Z,13.19
2016-08-16T00:52:23.780Z,13.1
2016-08-16T00:53:23.811Z,13.12
2016-08-16T00:54:23.830Z,13.05
2016-08-16T00:55:23.858Z,13.14
2016-08-16T00:56:23.879Z,13.04
2016-08-16T00:57:23.908Z,13.01
2016-08-16T00:58:23.988Z,13.01
2016-08-16T00:59:38.879Z,13.03
2016-08-16T01:00:23.976Z,13.04
2016-08-16T01:01:24.001Z,13.05
2016-08-16T01:02:38.948Z,13.11
2016-08-16T01:03:24.059Z,13.05
2016-08-16T01:04:24.074Z,13.05
2016-08-16T01:06:24.119Z,13.1
2016-08-16T01:07:24.151Z,13.03
2016-08-16T01:08:24.173Z,13.12
2016-08-16T01:09:24.193Z,13.11
2016-08-16T01:10:24.224Z,13.01
2016-08-16T01:11:24.251Z,13.17
2016-08-16T01:12:24.273Z,13.12
2016-08-16T01:13:24.297Z,13.14
2016-08-16T01:14:24.320Z,13.04
2016-08-16T01:16:24.367Z,13.04
2016-08-16T01:17:39.319Z,13.07
2016-08-16T01:18:39.399Z,13.14
2016-08-16T01:19:24.450Z,13.08
2016-08-16T01:20:25.157Z,12.97
2016-08-16T01:21:24.495Z,13.03
2016-08-16T01:22:24.520Z,12.97
2016-08-16T01:23:24.546Z,13.05
2016-08-16T01:24:24.570Z,13.05
2016-08-16T01:25:24.634Z,13.03
2016-08-16T01:26:24.607Z,13.03
2016-08-16T01:27:24.641Z,12.95
2016-08-16T01:29:24.689Z,13.11
2016-08-16T01:30:39.637Z,13.01
2016-08-16T01:31:24.742Z,13.03
2016-08-16T01:32:24.765Z,12.93
2016-08-16T01:33:24.783Z,12.95
2016-08-16T01:34:39.732Z,12.87
2016-08-16T01:35:39.758Z,12.92
2016-08-16T01:36:24.872Z,12.92
2016-08-16T01:37:24.879Z,12.85
2016-08-16T01:38:24.908Z,12.9
2016-08-16T01:39:24.933Z,12.9
2016-08-16T01:40:24.957Z,12.92
2016-08-16T01:41:24.983Z,12.89
2016-08-16T01:42:25.006Z,12.92
2016-08-16T01:43:25.033Z,12.85
2016-08-16T01:44:25.064Z,12.85
2016-08-16T01:45:26.187Z,12.78
2016-08-16T01:46:25.825Z,12.78
2016-08-16T01:47:25.132Z,12.79
2016-08-16T01:48:25.163Z,12.77
2016-08-16T01:49:40.100Z,12.65
2016-08-16T01:50:40.124Z,12.67
2016-08-16T01:51:40.148Z,12.74
2016-08-16T01:52:25.250Z,12.79
2016-08-16T01:53:25.278Z,12.68
2016-08-16T01:54:25.306Z,12.79
2016-08-16T01:55:25.330Z,12.82
2016-08-16T01:56:25.353Z,12.83
2016-08-16T01:57:25.375Z,12.85
2016-08-16T01:58:25.406Z,12.65
2016-08-16T01:59:25.419Z,12.64
2016-08-16T02:00:25.647Z,12.74
2016-08-16T02:01:25.470Z,12.65
2016-08-16T02:02:25.492Z,12.82
2016-08-16T02:03:25.532Z,12.79
2016-08-16T02:04:25.548Z,12.85
2016-08-16T02:05:40.493Z,12.79
2016-08-16T02:06:25.594Z,12.75
2016-08-16T02:07:25.613Z,12.79
2016-08-16T02:08:25.650Z,12.82
2016-08-16T02:09:25.661Z,12.82
2016-08-16T02:10:25.694Z,12.78
2016-08-16T02:11:25.713Z,12.79
2016-08-16T02:12:25.741Z,12.78
2016-08-16T02:13:25.764Z,12.77
2016-08-16T02:14:25.788Z,12.78
2016-08-16T02:15:25.812Z,12.85
2016-08-16T02:16:25.835Z,12.72
2016-08-16T02:17:25.860Z,12.82
2016-08-16T02:18:25.893Z,12.83
2016-08-16T02:19:25.905Z,12.82
2016-08-16T02:20:25.987Z,12.82
2016-08-16T02:21:40.881Z,12.75
2016-08-16T02:22:40.903Z,12.79
2016-08-16T02:23:26.002Z,12.67
2016-08-16T02:24:26.034Z,12.72
2016-08-16T02:25:26.051Z,12.77
2016-08-16T02:26:26.077Z,12.85
2016-08-16T02:27:26.105Z,12.83
2016-08-16T02:29:26.210Z,12.86
2016-08-16T02:30:26.175Z,12.77
2016-08-16T02:31:41.130Z,12.74
2016-08-16T02:32:27.323Z,12.74
2016-08-16T02:33:26.259Z,12.75
2016-08-16T02:34:26.274Z,12.83
2016-08-16T02:35:26.303Z,12.77
2016-08-16T02:36:26.329Z,12.78
2016-08-16T02:37:41.275Z,12.68
2016-08-16T02:38:26.372Z,12.65
2016-08-16T02:39:26.396Z,12.75
2016-08-16T02:40:26.421Z,12.64
2016-08-16T02:41:26.452Z,12.7
2016-08-16T02:42:26.468Z,12.64
2016-08-16T02:43:26.496Z,12.65
2016-08-16T02:44:26.512Z,12.65
2016-08-16T02:45:26.541Z,12.57
2016-08-16T02:46:26.571Z,12.68
2016-08-16T02:47:26.596Z,12.65
2016-08-16T02:50:26.665Z,12.71
2016-08-16T02:51:26.692Z,12.72
2016-08-16T02:52:26.715Z,12.75
2016-08-16T02:53:41.660Z,12.78
2016-08-16T02:54:27.454Z,12.71
2016-08-16T02:55:26.792Z,12.68
2016-08-16T02:56:26.801Z,12.72
2016-08-16T02:57:26.829Z,12.77
2016-08-16T02:58:26.875Z,12.78
2016-08-16T02:59:26.877Z,12.74
2016-08-16T03:00:26.902Z,12.74
2016-08-16T03:01:26.922Z,12.72
2016-08-16T03:02:27.665Z,12.72
2016-08-16T03:03:26.995Z,12.68
2016-08-16T03:04:27.716Z,12.68
2016-08-16T03:05:27.021Z,12.83
2016-08-16T03:07:27.069Z,12.79
2016-08-16T03:08:27.096Z,12.85
2016-08-16T03:09:42.350Z,12.85
2016-08-16T03:10:27.150Z,12.86
2016-08-16T03:11:27.170Z,12.87
2016-08-16T03:12:27.897Z,12.9
2016-08-16T03:13:27.217Z,12.95
2016-08-16T03:14:27.248Z,12.89
2016-08-16T03:15:27.269Z,12.96
2016-08-16T03:16:27.301Z,13.07
2016-08-16T03:17:27.314Z,13.12
2016-08-16T03:18:27.348Z,13.17
2016-08-16T03:19:27.364Z,13.23
2016-08-16T03:20:27.398Z,13.19
2016-08-16T03:21:27.413Z,13.23
2016-08-16T03:22:27.433Z,13.26
2016-08-16T03:23:27.460Z,13.19
2016-08-16T03:24:42.461Z,13.3
2016-08-16T03:25:27.512Z,13.28
2016-08-16T03:26:27.540Z,13.29
2016-08-16T03:27:27.557Z,13.38
2016-08-16T03:28:27.589Z,13.33
2016-08-16T03:29:27.606Z,13.22
2016-08-16T03:30:27.836Z,13.25
2016-08-16T03:31:27.705Z,13.17
2016-08-16T03:32:27.682Z,13.1
2016-08-16T03:33:27.704Z,13.17
2016-08-16T03:34:27.729Z,13.2
2016-08-16T03:35:27.753Z,13.25
2016-08-16T03:36:27.775Z,13.12
2016-08-16T03:37:27.800Z,13.15
2016-08-16T03:38:42.753Z,13.01
2016-08-16T03:39:27.854Z,13.08
2016-08-16T03:40:27.882Z,13.08
2016-08-16T03:42:27.922Z,13.04
2016-08-16T03:43:27.947Z,13.04
2016-08-16T03:44:27.972Z,13.07
2016-08-16T03:45:27.999Z,13.04
2016-08-16T03:46:28.035Z,13.19
2016-08-16T03:47:28.045Z,13.11
2016-08-16T03:48:28.068Z,13.17
2016-08-16T03:49:28.093Z,13.03
2016-08-16T03:50:28.115Z,13.12
2016-08-16T03:51:43.073Z,12.89
2016-08-16T03:52:30.371Z,12.9
2016-08-16T03:53:28.198Z,12.93
2016-08-16T03:54:28.220Z,12.93
2016-08-16T03:55:28.242Z,12.9
2016-08-16T03:56:43.197Z,12.89
2016-08-16T03:57:28.286Z,12.96
2016-08-16T03:58:28.511Z,12.92
2016-08-16T03:59:28.343Z,12.97
2016-08-16T04:00:28.356Z,13.01
2016-08-16T04:01:29.302Z,13.05
2016-08-16T04:02:28.407Z,13.12
2016-08-16T04:03:28.430Z,13.22
2016-08-16T04:04:28.482Z,13.22
2016-08-16T04:05:28.481Z,13.22
2016-08-16T04:06:29.208Z,13.19
2016-08-16T04:07:43.455Z,13.25
2016-08-16T04:08:28.558Z,13.2
2016-08-16T04:09:28.573Z,13.19
2016-08-16T04:10:28.598Z,13.2
2016-08-16T04:11:28.620Z,13.2
2016-08-16T04:12:43.573Z,13.2
2016-08-16T04:13:28.677Z,13.15
2016-08-16T04:14:28.705Z,13.25
2016-08-16T04:15:28.739Z,13.14
2016-08-16T04:16:28.745Z,13.22
2016-08-16T04:17:28.769Z,13.2
2016-08-16T04:18:28.792Z,13.2
2016-08-16T04:19:28.823Z,13.19
2016-08-16T04:20:28.849Z,13.32
2016-08-16T04:21:28.883Z,13.29
2016-08-16T04:22:28.892Z,13.36
2016-08-16T04:23:28.916Z,13.39
2016-08-16T04:24:28.939Z,13.39
2016-08-16T04:25:29.684Z,13.51
2016-08-16T04:26:28.999Z,13.46
2016-08-16T04:27:29.071Z,13.54
2016-08-16T04:28:43.979Z,13.48
2016-08-16T04:29:29.064Z,13.57
2016-08-16T04:30:29.137Z,13.59
2016-08-16T04:31:29.119Z,13.63
2016-08-16T04:32:29.142Z,13.57
2016-08-16T04:33:29.860Z,13.64
2016-08-16T04:34:29.184Z,13.62
2016-08-16T04:35:29.214Z,13.59
2016-08-16T04:36:29.228Z,13.7
2016-08-16T04:37:29.262Z,13.73
2016-08-16T04:38:29.289Z,13.79
2016-08-16T04:39:29.316Z,13.77
2016-08-16T04:40:29.340Z,13.92
2016-08-16T04:41:29.353Z,13.92
2016-08-16T04:42:29.383Z,13.89
2016-08-16T04:43:29.419Z,13.96
2016-08-16T04:44:44.350Z,14.02
2016-08-16T04:45:44.378Z,14.02
2016-08-16T04:46:29.481Z,14.07
2016-08-16T04:47:29.500Z,14.18
2016-08-16T04:48:29.534Z,14.22
2016-08-16T04:49:29.561Z,14.32
2016-08-16T04:50:29.578Z,14.25
2016-08-16T04:51:29.607Z,14.37
2016-08-16T04:52:29.623Z,14.21
2016-08-16T04:53:29.655Z,14.25
2016-08-16T04:54:29.684Z,14.33
2016-08-16T04:55:29.707Z,14.46
2016-08-16T04:56:29.732Z,14.47
2016-08-16T04:57:44.677Z,14.83
2016-08-16T04:58:29.783Z,14.92
2016-08-16T04:59:44.725Z,14.94
2016-08-16T05:01:29.851Z,14.91
2016-08-16T05:02:29.881Z,14.94
2016-08-16T05:03:29.903Z,15.06
2016-08-16T05:04:29.935Z,15.07
2016-08-16T05:05:29.958Z,15.06
2016-08-16T05:06:29.981Z,15.11
2016-08-16T05:07:30.002Z,15.29
2016-08-16T05:08:30.032Z,15.43
2016-08-16T05:09:44.984Z,15.71
2016-08-16T05:10:30.085Z,15.86
2016-08-16T05:11:30.119Z,16.48
2016-08-16T05:12:30.135Z,16.86
2016-08-16T05:13:30.155Z,17.46
2016-08-16T05:14:30.201Z,18.23
2016-08-16T05:15:30.208Z,18.47
2016-08-16T05:16:30.239Z,18.44
2016-08-16T05:17:30.263Z,18.47
2016-08-16T05:18:30.291Z,18.33
2016-08-16T05:19:30.312Z,18.37
2016-08-16T05:20:30.337Z,18.88
2016-08-16T05:21:30.368Z,18.82
2016-08-16T05:22:30.395Z,18.94
2016-08-16T05:23:30.735Z,19.02
2016-08-16T05:24:30.453Z,19.41
2016-08-16T05:25:30.473Z,19.68
2016-08-16T05:26:30.505Z,19.8
2016-08-16T05:28:30.556Z,20.26
2016-08-16T05:29:30.634Z,20.91
2016-08-16T05:30:30.608Z,21.27
2016-08-16T05:31:45.562Z,21.5
2016-08-16T05:32:30.715Z,21.74
2016-08-16T05:33:31.398Z,21.42
2016-08-16T05:34:30.727Z,20.95
2016-08-16T05:35:30.757Z,20.62
2016-08-16T05:36:30.784Z,20.58
2016-08-16T05:37:30.812Z,20.61
2016-08-16T05:38:30.889Z,20.64
2016-08-16T05:39:30.875Z,20.57
2016-08-16T05:41:30.930Z,19.92
2016-08-16T05:42:30.959Z,19.87
2016-08-16T05:43:30.992Z,19.87
2016-08-16T05:44:31.023Z,19.91
2016-08-16T05:45:31.050Z,19.74
2016-08-16T05:46:31.080Z,20.01
2016-08-16T05:47:46.024Z,20.24
2016-08-16T05:48:31.131Z,20.23
2016-08-16T05:49:46.079Z,20.51
2016-08-16T05:50:31.185Z,20.82
2016-08-16T05:51:31.220Z,21.21
2016-08-16T05:52:31.253Z,21.07
2016-08-16T05:53:31.278Z,20.94
2016-08-16T05:54:31.303Z,21.38
2016-08-16T05:55:31.334Z,21.69
2016-08-16T05:56:31.364Z,21.62
2016-08-16T05:59:31.466Z,21.42
2016-08-16T06:01:31.503Z,22.6
2016-08-16T06:02:31.536Z,22.37
2016-08-16T06:03:46.498Z,22.36
2016-08-16T06:04:31.606Z,22.67
2016-08-16T06:05:31.637Z,23.17
2016-08-16T06:06:31.669Z,23.73
2016-08-16T06:07:31.693Z,24.52
2016-08-16T06:08:31.726Z,24.06
2016-08-16T06:09:32.458Z,22.95
2016-08-16T06:11:31.814Z,22.28
2016-08-16T06:12:31.866Z,22.28
2016-08-16T06:13:31.885Z,22.39
2016-08-16T06:14:31.918Z,22.46
2016-08-16T06:15:31.952Z,22.17
2016-08-16T06:16:31.985Z,22.52
2016-08-16T06:17:32.024Z,23.05
2016-08-16T06:18:32.747Z,23.48
2016-08-16T06:19:47.007Z,23.12
2016-08-16T06:20:47.035Z,23.48
2016-08-16T06:21:32.146Z,23.94
2016-08-16T06:22:32.185Z,24
2016-08-16T06:23:32.216Z,24.18
2016-08-16T06:24:32.247Z,24.15
2016-08-16T06:25:32.276Z,24.42
2016-08-16T06:26:32.318Z,24.13
2016-08-16T06:27:32.346Z,24.28
2016-08-16T06:28:32.379Z,24.12
2016-08-16T06:29:32.419Z,24.2
2016-08-16T06:30:32.451Z,24.47
2016-08-16T06:31:32.482Z,24.55
2016-08-16T06:32:32.520Z,25.03
2016-08-16T06:33:32.606Z,24.93
2016-08-16T06:34:47.512Z,24.61
2016-08-16T06:35:32.614Z,24.39
2016-08-16T06:36:32.703Z,24.43
2016-08-16T06:37:47.627Z,24.47
2016-08-16T06:38:32.727Z,24.61
2016-08-16T06:39:32.754Z,24.43
2016-08-16T06:40:32.796Z,24.55
2016-08-16T06:41:32.819Z,24.78
2016-08-16T06:42:32.860Z,24.6
2016-08-16T06:43:32.896Z,25
2016-08-16T06:44:32.922Z,25.21
2016-08-16T06:45:32.956Z,25.61
2016-08-16T06:46:32.990Z,25.5
2016-08-16T06:47:33.037Z,25.58
2016-08-16T06:49:33.101Z,25.27
2016-08-16T06:50:48.057Z,25.75
2016-08-16T06:51:33.164Z,25.94
2016-08-16T06:52:33.193Z,26.21
2016-08-16T06:53:33.236Z,25.6
2016-08-16T06:54:33.268Z,24.99
2016-08-16T06:55:33.318Z,25.08
2016-08-16T06:56:33.337Z,25.55
2016-08-16T06:57:33.376Z,26.05
2016-08-16T06:58:33.409Z,26.35
2016-08-16T06:59:33.443Z,26.13
2016-08-16T07:00:33.478Z,25.73
2016-08-16T07:01:33.512Z,26.3
2016-08-16T07:02:33.545Z,26.05
2016-08-16T07:03:33.584Z,26.43
2016-08-16T07:04:33.624Z,26.69
2016-08-16T07:05:33.659Z,26.81
2016-08-16T07:06:49.336Z,26.75
2016-08-16T07:07:33.733Z,26.66
2016-08-16T07:08:33.755Z,26.95
2016-08-16T07:09:33.792Z,27
2016-08-16T07:10:33.832Z,27.65
2016-08-16T07:11:33.866Z,27.9
2016-08-16T07:12:33.911Z,28.14
2016-08-16T07:13:33.936Z,28.33
2016-08-16T07:14:33.979Z,28.04
2016-08-16T07:15:34.009Z,28.21
2016-08-16T07:16:34.041Z,28
2016-08-16T07:17:34.072Z,27.93
2016-08-16T07:19:34.850Z,26.21
2016-08-16T07:20:49.113Z,26.66
2016-08-16T07:21:34.216Z,26.77
2016-08-16T07:22:49.182Z,27.18
2016-08-16T07:23:34.296Z,27.39
2016-08-16T07:24:34.326Z,27.72
2016-08-16T07:25:34.362Z,27.7
2016-08-16T07:26:34.394Z,27.97
2016-08-16T07:28:34.473Z,28.46
2016-08-16T07:29:34.508Z,28.03
2016-08-16T07:30:34.541Z,27.39
2016-08-16T07:31:34.578Z,26.85
2016-08-16T07:33:34.648Z,26.51
2016-08-16T07:34:34.684Z,26.91
2016-08-16T07:35:34.721Z,27.1
2016-08-16T07:36:34.762Z,27.29
2016-08-16T07:37:34.840Z,27.57
2016-08-16T07:38:49.753Z,27.6
2016-08-16T07:39:34.862Z,27.1
2016-08-16T07:40:34.898Z,26.32
2016-08-16T07:41:34.945Z,26.29
2016-08-16T07:42:34.973Z,25.92
2016-08-16T07:43:35.019Z,25.62
2016-08-16T07:44:35.040Z,25.23
2016-08-16T07:45:35.077Z,25.57
2016-08-16T07:46:35.118Z,25.7
2016-08-16T07:47:35.158Z,26.32
2016-08-16T07:48:35.186Z,26.39
2016-08-16T07:49:35.218Z,26.35
2016-08-16T07:51:35.287Z,26.33
2016-08-16T07:52:35.320Z,26.89
2016-08-16T07:53:35.356Z,27.13
2016-08-16T07:54:50.332Z,27.55
2016-08-16T07:55:35.430Z,27.75
2016-08-16T07:56:35.468Z,28.29
2016-08-16T07:57:35.502Z,28.29
2016-08-16T07:58:36.242Z,28.22
2016-08-16T07:59:35.572Z,27.31
2016-08-16T08:00:35.605Z,27.02
2016-08-16T08:01:35.645Z,27.34
2016-08-16T08:02:35.681Z,27.81
2016-08-16T08:03:35.718Z,28.07
2016-08-16T08:04:35.760Z,27.94
2016-08-16T08:05:35.782Z,28
2016-08-16T08:06:35.821Z,28.51
2016-08-16T08:07:35.866Z,28.88
2016-08-16T08:08:35.893Z,29.18
2016-08-16T08:09:50.855Z,29.28
2016-08-16T08:10:35.976Z,29.45
2016-08-16T08:11:36.005Z,28.89
2016-08-16T08:12:36.035Z,27.7
2016-08-16T08:13:36.081Z,26.45
2016-08-16T08:14:36.113Z,26.33
2016-08-16T08:15:36.144Z,26.55
2016-08-16T08:16:36.182Z,26.7
2016-08-16T08:17:36.919Z,26.76
2016-08-16T08:18:36.252Z,26.29
2016-08-16T08:19:36.287Z,26.06
2016-08-16T08:21:51.284Z,26.44
2016-08-16T08:22:51.317Z,26.47
2016-08-16T08:23:51.351Z,26.33
2016-08-16T08:24:36.462Z,26.29
2016-08-16T08:25:36.497Z,25.9
2016-08-16T08:26:36.532Z,25.8
2016-08-16T08:27:36.565Z,26.32
2016-08-16T08:28:36.601Z,26.8
2016-08-16T08:29:36.629Z,27.4
2016-08-16T08:30:36.676Z,28.36
2016-08-16T08:31:36.707Z,28.46
2016-08-16T08:32:36.736Z,29.04
2016-08-16T08:33:36.771Z,28.52
2016-08-16T08:34:36.811Z,27.29
2016-08-16T08:35:36.841Z,26.5
2016-08-16T08:36:36.892Z,26.02
2016-08-16T08:37:36.963Z,25.92
2016-08-16T08:38:36.942Z,25.58
2016-08-16T08:39:51.908Z,24.91
2016-08-16T08:40:37.016Z,24.58
2016-08-16T08:41:51.975Z,24.4
2016-08-16T08:42:37.086Z,24.93
2016-08-16T08:43:37.117Z,25
2016-08-16T08:44:37.153Z,25.23
2016-08-16T08:45:37.233Z,25.08
2016-08-16T08:46:37.220Z,25.72
2016-08-16T08:47:37.263Z,26.17
2016-08-16T08:48:37.288Z,26.25
2016-08-16T08:49:37.322Z,26.3
2016-08-16T08:50:37.365Z,26.5
2016-08-16T08:51:37.392Z,26.33
2016-08-16T08:52:37.422Z,26.23
2016-08-16T08:54:37.495Z,26.18
2016-08-16T08:55:37.530Z,25.23
2016-08-16T08:56:37.560Z,24.76
2016-08-16T08:57:52.516Z,24.49
2016-08-16T08:58:37.633Z,24.43
2016-08-16T08:59:52.583Z,24.35
2016-08-16T09:00:37.695Z,24.43
2016-08-16T09:01:37.723Z,24.62
2016-08-16T09:02:37.756Z,24.91
2016-08-16T09:03:37.803Z,24.99
2016-08-16T09:04:37.833Z,24.71
2016-08-16T09:05:37.857Z,24.78
2016-08-16T09:07:37.930Z,24.28
2016-08-16T09:08:37.964Z,24.73
2016-08-16T09:09:38.000Z,25.1
2016-08-16T09:10:38.035Z,24.87
2016-08-16T09:11:38.067Z,24.52
2016-08-16T09:12:38.118Z,24.45
2016-08-16T09:13:53.051Z,25.21
2016-08-16T09:14:53.082Z,25.69
2016-08-16T09:15:38.194Z,25.72
2016-08-16T09:16:38.227Z,25.24
2016-08-16T09:17:38.259Z,25.05
2016-08-16T09:18:38.289Z,25.32
2016-08-16T09:19:38.325Z,25.3
2016-08-16T09:20:38.360Z,25.09
2016-08-16T09:21:38.391Z,25.62
2016-08-16T09:22:38.418Z,25.85
2016-08-16T09:23:38.465Z,26.3
2016-08-16T09:24:38.487Z,26.73
2016-08-16T09:25:38.522Z,26.58
2016-08-16T09:26:38.560Z,26.97
2016-08-16T09:27:38.585Z,27.31
2016-08-16T09:28:38.626Z,27.4
2016-08-16T09:29:53.579Z,27.46
2016-08-16T09:30:38.692Z,27.34
2016-08-16T09:31:38.723Z,26.91
2016-08-16T09:32:38.760Z,27
2016-08-16T09:33:38.784Z,26.57
2016-08-16T09:34:38.819Z,26.48
2016-08-16T09:35:38.852Z,26.17
2016-08-16T09:36:38.888Z,26.77
2016-08-16T09:38:38.968Z,27.36
2016-08-16T09:39:38.995Z,26.8
2016-08-16T09:40:39.018Z,26.32
2016-08-16T09:41:39.050Z,25.75
2016-08-16T09:42:39.106Z,24.68
2016-08-16T09:43:39.136Z,24.24
2016-08-16T09:44:54.084Z,24.1
2016-08-16T09:45:39.191Z,23.85
2016-08-16T09:46:39.216Z,23.6
2016-08-16T09:47:39.253Z,23.75
2016-08-16T09:48:39.284Z,23.33
2016-08-16T09:49:39.319Z,24.15
2016-08-16T09:50:39.360Z,25.2
2016-08-16T09:51:39.392Z,25.8
2016-08-16T09:52:39.419Z,25.9
2016-08-16T09:53:39.447Z,26.29
2016-08-16T09:54:39.483Z,26.73
2016-08-16T09:55:39.507Z,26.69
2016-08-16T09:56:39.548Z,27.13
2016-08-16T09:57:39.578Z,26.63
2016-08-16T09:58:39.611Z,26.51
2016-08-16T09:59:39.647Z,26.65
2016-08-16T10:00:39.671Z,26.63
2016-08-16T10:01:39.716Z,26.7
2016-08-16T10:02:39.746Z,26.84
2016-08-16T10:03:39.781Z,27.65
2016-08-16T10:04:39.801Z,27.99
2016-08-16T10:05:39.842Z,28.12
2016-08-16T10:06:39.878Z,28.21
2016-08-16T10:07:39.898Z,27.94
2016-08-16T10:08:39.993Z,28.09
2016-08-16T10:09:39.967Z,27.22
2016-08-16T10:10:40.003Z,26.45
2016-08-16T10:11:40.039Z,25.97
2016-08-16T10:12:54.998Z,25.69
2016-08-16T10:13:40.109Z,25.33
2016-08-16T10:14:40.129Z,25.03
2016-08-16T10:15:40.168Z,25.5
2016-08-16T10:16:55.121Z,25.77
2016-08-16T10:17:40.234Z,26.33
2016-08-16T10:18:40.275Z,26.51
2016-08-16T10:19:40.304Z,26.99
2016-08-16T10:20:40.328Z,27.66
2016-08-16T10:21:40.359Z,28
2016-08-16T10:22:40.398Z,27.87
2016-08-16T10:23:40.423Z,26.76
2016-08-16T10:24:40.469Z,26.33
2016-08-16T10:25:40.500Z,26.54
2016-08-16T10:26:40.524Z,26.45
2016-08-16T10:27:40.563Z,26.73
2016-08-16T10:28:40.607Z,26.55
2016-08-16T10:29:40.628Z,25.95
2016-08-16T10:30:40.659Z,25.77
2016-08-16T10:31:40.703Z,25.47
2016-08-16T10:32:55.651Z,24.47
2016-08-16T10:33:40.759Z,24.65
2016-08-16T10:34:40.783Z,25.02
2016-08-16T10:35:40.824Z,25.28
2016-08-16T10:36:40.845Z,25.46
2016-08-16T10:37:40.881Z,25.4
2016-08-16T10:38:40.917Z,24.9
2016-08-16T10:39:40.954Z,24.84
2016-08-16T10:40:40.985Z,25.08
2016-08-16T10:41:41.015Z,25.23
2016-08-16T10:42:41.042Z,25.3
2016-08-16T10:43:41.073Z,25.55
2016-08-16T10:44:41.164Z,25.5
2016-08-16T10:45:41.140Z,25.4
2016-08-16T10:46:41.180Z,25.03
2016-08-16T10:47:56.133Z,24.91
2016-08-16T10:48:56.919Z,25.25
2016-08-16T10:49:41.272Z,25.23
2016-08-16T10:50:41.307Z,25.2
2016-08-16T10:51:42.032Z,24.61
2016-08-16T10:52:41.370Z,24.84
2016-08-16T10:53:41.400Z,24.93
2016-08-16T10:54:41.440Z,24.93
2016-08-16T10:55:42.170Z,25.02
2016-08-16T10:56:41.498Z,25.15
2016-08-16T10:57:41.519Z,25.21
2016-08-16T10:58:41.556Z,25.2
2016-08-16T10:59:41.600Z,25.42
2016-08-16T11:00:41.616Z,25.39
2016-08-16T11:01:41.649Z,25.23
2016-08-16T11:02:41.677Z,25.2
2016-08-16T11:03:41.712Z,25.39
2016-08-16T11:04:56.669Z,25.45
2016-08-16T11:05:41.783Z,25.46
2016-08-16T11:06:41.805Z,25.72
2016-08-16T11:07:41.839Z,25.65
2016-08-16T11:08:41.873Z,25.69
2016-08-16T11:09:41.909Z,25.83
2016-08-16T11:10:41.935Z,25.79
2016-08-16T11:11:41.971Z,25.39
2016-08-16T11:12:41.993Z,25.35
2016-08-16T11:13:42.026Z,25.61
2016-08-16T11:14:42.062Z,25.54
2016-08-16T11:15:42.102Z,25.73
2016-08-16T11:17:42.151Z,25.54
2016-08-16T11:19:57.142Z,24.87
2016-08-16T11:20:42.250Z,24.57
2016-08-16T11:21:42.283Z,24.45
2016-08-16T11:22:42.307Z,24.57
2016-08-16T11:23:42.344Z,24.64
2016-08-16T11:24:42.375Z,24.21
2016-08-16T11:25:42.404Z,24.18
2016-08-16T11:26:42.430Z,24.25
2016-08-16T11:27:42.472Z,24.37
2016-08-16T11:28:42.495Z,24.27
2016-08-16T11:29:42.528Z,24.3
2016-08-16T11:30:42.558Z,23.91
2016-08-16T11:31:42.587Z,24.03
2016-08-16T11:32:42.614Z,24.18
2016-08-16T11:33:42.646Z,24.47
2016-08-16T11:34:42.688Z,24.45
2016-08-16T11:35:42.715Z,24.39
2016-08-16T11:36:57.661Z,24.52
2016-08-16T11:37:42.766Z,24.58
2016-08-16T11:38:42.802Z,24.93
2016-08-16T11:39:42.828Z,25.2
2016-08-16T11:40:42.861Z,25.47
2016-08-16T11:41:42.891Z,25.9
2016-08-16T11:42:42.930Z,26.01
2016-08-16T11:43:42.954Z,26.36
2016-08-16T11:45:43.018Z,26.4
2016-08-16T11:46:43.041Z,25.51
2016-08-16T11:47:43.072Z,25.05
2016-08-16T11:48:43.104Z,24.71
2016-08-16T11:49:43.135Z,24.34
2016-08-16T11:50:43.169Z,24.55
2016-08-16T11:51:58.126Z,24.61
2016-08-16T11:52:43.926Z,24.68
2016-08-16T11:53:43.259Z,24.77
2016-08-16T11:54:58.211Z,24.81
2016-08-16T11:55:43.318Z,24.43
2016-08-16T11:56:43.350Z,24.47
2016-08-16T11:57:43.383Z,24.77
2016-08-16T11:58:43.408Z,24.69
2016-08-16T11:59:43.446Z,24.96
2016-08-16T12:01:43.503Z,25.06
2016-08-16T12:02:43.533Z,25.2
2016-08-16T12:03:58.494Z,25.38
2016-08-16T12:04:43.596Z,25.45
2016-08-16T12:05:43.633Z,25.83
2016-08-16T12:06:58.579Z,26.09
2016-08-16T12:07:58.608Z,26.1
2016-08-16T12:08:58.648Z,25.91
2016-08-16T12:09:43.755Z,26.02
2016-08-16T12:10:43.779Z,26.32
2016-08-16T12:11:43.806Z,26.02
2016-08-16T12:12:43.844Z,25.62
2016-08-16T12:13:43.914Z,25.55
2016-08-16T12:14:43.897Z,25.17
2016-08-16T12:15:43.936Z,25.25
2016-08-16T12:16:43.974Z,25.46
2016-08-16T12:17:43.990Z,25.47
2016-08-16T12:18:44.173Z,25.35
2016-08-16T12:19:44.050Z,24.93
2016-08-16T12:20:44.080Z,24.76
2016-08-16T12:21:44.115Z,24.87
2016-08-16T12:22:44.151Z,24.9
2016-08-16T12:23:59.101Z,24.91
2016-08-16T12:24:44.209Z,25.06
2016-08-16T12:25:44.252Z,24.8
2016-08-16T12:26:44.272Z,24.73
2016-08-16T12:27:44.299Z,24.81
2016-08-16T12:28:44.328Z,25.06
2016-08-16T12:29:44.356Z,25.2
2016-08-16T12:30:44.391Z,25.39
2016-08-16T12:31:44.425Z,25.39
2016-08-16T12:32:44.449Z,25.62
2016-08-16T12:33:45.187Z,25.36
2016-08-16T12:34:44.513Z,24.84
2016-08-16T12:35:44.542Z,25.02
2016-08-16T12:36:44.571Z,24.5
2016-08-16T12:37:44.610Z,24.28
2016-08-16T12:38:44.636Z,23.94
2016-08-16T12:39:59.589Z,23.94
2016-08-16T12:40:44.704Z,23.98
2016-08-16T12:41:44.725Z,24.15
2016-08-16T12:42:44.762Z,24.16
2016-08-16T12:43:44.789Z,24.45
2016-08-16T12:44:44.816Z,24.69
2016-08-16T12:45:44.846Z,24.76
2016-08-16T12:46:44.881Z,24.8
2016-08-16T12:47:44.911Z,24.9
2016-08-16T12:48:44.942Z,24.96
2016-08-16T12:49:44.969Z,24.81
2016-08-16T12:50:44.999Z,25.06
2016-08-16T12:51:59.958Z,25.33
2016-08-16T12:52:45.073Z,25.02
2016-08-16T12:53:45.113Z,24.95
2016-08-16T12:55:00.057Z,25.14
2016-08-16T12:56:00.078Z,25.25
2016-08-16T12:56:45.187Z,25.28
2016-08-16T12:57:45.317Z,25.6
2016-08-16T12:58:45.261Z,25.79
2016-08-16T12:59:45.283Z,25.64
2016-08-16T13:00:45.311Z,25.82
2016-08-16T13:01:45.341Z,26.05
2016-08-16T13:02:45.368Z,25.83
2016-08-16T13:03:45.399Z,25.69
2016-08-16T13:04:45.430Z,25.45
2016-08-16T13:06:00.388Z,25.46
2016-08-16T13:06:45.493Z,25.5
2016-08-16T13:08:45.551Z,24.9
2016-08-16T13:09:45.588Z,24.95
2016-08-16T13:10:45.611Z,24.85
2016-08-16T13:11:45.668Z,24.85
2016-08-16T13:12:45.676Z,24.76
2016-08-16T13:14:45.734Z,25.08
2016-08-16T13:15:45.759Z,25.09
2016-08-16T13:16:45.788Z,25.2
2016-08-16T13:17:45.816Z,25.13
2016-08-16T13:18:45.852Z,25.17
2016-08-16T13:19:45.890Z,25.02
2016-08-16T13:20:45.910Z,25.14
2016-08-16T13:21:45.957Z,24.84
2016-08-16T13:22:45.975Z,24.57
2016-08-16T13:23:46.022Z,24.5
2016-08-16T13:25:01.008Z,24.45
2016-08-16T13:25:46.071Z,24.49
2016-08-16T13:27:01.019Z,24.55
2016-08-16T13:27:46.128Z,24.45
2016-08-16T13:28:46.151Z,24.42
2016-08-16T13:29:46.190Z,24.42
2016-08-16T13:30:46.219Z,24.6
2016-08-16T13:31:46.244Z,24.47